createdAt,value
2018-01-19T00:00:47.055Z,4.90
2018-01-19T00:03:15.382Z,5.33
2018-01-19T00:05:42.936Z,5.40
2018-01-19T00:08:10.492Z,4.70
2018-01-19T00:10:38.020Z,5.90
2018-01-19T00:13:05.581Z,5.83
2018-01-19T00:15:33.888Z,5.77
2018-01-19T00:18:02.222Z,5.80
2018-01-19T00:20:29.755Z,4.97
2018-01-19T00:22:57.317Z,5.10
2018-01-19T00:25:24.867Z,5.77
2018-01-19T00:27:52.449Z,6.00
2018-01-19T00:30:20.022Z,7.10
2018-01-19T00:32:47.563Z,7.17
2018-01-19T00:35:15.111Z,6.70
2018-01-19T00:37:42.639Z,7.07
2018-01-19T00:40:10.191Z,6.10
2018-01-19T00:42:37.730Z,5.80
2018-01-19T00:45:06.054Z,6.80
2018-01-19T00:47:33.613Z,7.50
2018-01-19T00:50:01.950Z,7.10
2018-01-19T00:52:29.509Z,7.10
2018-01-19T00:54:57.089Z,7.73
2018-01-19T00:57:24.641Z,7.60
2018-01-19T00:59:52.209Z,8.67
2018-01-19T01:02:19.747Z,7.53
2018-01-19T01:04:47.285Z,9.00
2018-01-19T01:07:14.849Z,7.87
2018-01-19T01:09:42.383Z,9.87
2018-01-19T01:12:10.714Z,9.20
2018-01-19T01:14:38.264Z,11.90
2018-01-19T01:17:06.596Z,10.47
2018-01-19T01:19:34.145Z,9.53
2018-01-19T01:22:02.484Z,9.50
2018-01-19T01:24:30.037Z,11.13
2018-01-19T01:26:58.359Z,11.20
2018-01-19T01:29:25.901Z,10.60
2018-01-19T01:31:53.481Z,10.40
2018-01-19T01:34:21.034Z,10.43
2018-01-19T01:36:48.600Z,10.60
2018-01-19T01:39:16.144Z,10.97
2018-01-19T01:41:43.716Z,11.20
2018-01-19T01:44:11.261Z,11.00
2018-01-19T01:46:38.834Z,11.93
2018-01-19T01:49:12.174Z,10.63
2018-01-19T01:51:39.755Z,10.33
2018-01-19T01:54:08.060Z,10.27
2018-01-19T01:56:35.600Z,10.97
2018-01-19T01:59:03.928Z,9.47
2018-01-19T02:01:31.482Z,10.77
2018-01-19T02:03:59.818Z,9.17
2018-01-19T02:06:27.380Z,11.00
2018-01-19T02:08:55.733Z,10.40
2018-01-19T02:11:23.276Z,9.70
2018-01-19T02:13:50.836Z,8.90
2018-01-19T02:16:19.154Z,11.53
2018-01-19T02:18:46.730Z,10.70
2018-01-19T02:21:14.293Z,9.40
2018-01-19T02:23:41.861Z,10.40
2018-01-19T02:26:09.401Z,10.20
2018-01-19T02:28:36.973Z,9.87
2018-01-19T02:31:05.297Z,10.10
2018-01-19T02:33:32.869Z,10.20
2018-01-19T02:36:00.422Z,9.73
2018-01-19T02:38:27.986Z,10.40
2018-01-19T02:40:55.526Z,9.73
2018-01-19T02:43:23.084Z,9.00
2018-01-19T02:45:51.397Z,9.50
2018-01-19T02:48:19.707Z,9.80
2018-01-19T02:50:47.268Z,9.37
2018-01-19T02:53:15.588Z,9.20
2018-01-19T02:55:43.164Z,9.00
2018-01-19T02:58:11.469Z,8.43
2018-01-19T03:00:39.798Z,8.70
2018-01-19T03:03:07.340Z,7.73
2018-01-19T03:05:35.683Z,9.10
2018-01-19T03:08:03.227Z,10.47
2018-01-19T03:10:30.821Z,11.87
2018-01-19T03:12:58.368Z,9.50
2018-01-19T03:15:25.937Z,10.30
2018-01-19T03:17:53.476Z,9.30
2018-01-19T03:20:21.805Z,10.67
2018-01-19T03:22:49.352Z,11.37
2018-01-19T03:25:17.660Z,9.87
2018-01-19T03:27:46.032Z,10.63
2018-01-19T03:30:13.576Z,10.27
2018-01-19T03:32:41.132Z,10.43
2018-01-19T03:35:09.448Z,10.20
2018-01-19T03:37:37.012Z,9.10
2018-01-19T03:40:05.324Z,8.97
2018-01-19T03:42:32.911Z,8.67
2018-01-19T03:45:01.212Z,7.63
2018-01-19T03:47:29.730Z,8.43
2018-01-19T03:49:57.311Z,7.77
2018-01-19T03:52:24.885Z,6.97
2018-01-19T03:54:53.520Z,7.20
2018-01-19T03:57:21.129Z,6.70
2018-01-19T03:59:48.668Z,8.47
2018-01-19T04:02:16.993Z,6.70
2018-01-19T04:04:44.536Z,6.30
2018-01-19T04:07:12.873Z,7.47
2018-01-19T04:09:40.459Z,6.73
2018-01-19T04:12:07.996Z,8.00
2018-01-19T04:14:35.552Z,7.47
2018-01-19T04:17:03.122Z,7.73
2018-01-19T04:19:30.687Z,7.03
2018-01-19T04:21:58.231Z,7.43
2018-01-19T04:24:25.796Z,7.70
2018-01-19T04:26:53.344Z,7.10
2018-01-19T04:29:20.903Z,8.07
2018-01-19T04:31:49.204Z,7.80
2018-01-19T04:34:17.528Z,7.97
2018-01-19T04:36:45.081Z,7.80
2018-01-19T04:39:13.412Z,7.73
2018-01-19T04:41:40.952Z,8.00
2018-01-19T04:44:08.512Z,7.53
2018-01-19T04:46:36.080Z,6.90
2018-01-19T04:49:03.637Z,6.83
2018-01-19T04:51:31.945Z,7.70
2018-01-19T04:53:59.512Z,6.90
2018-01-19T04:56:27.828Z,6.33
2018-01-19T04:58:55.376Z,6.30
2018-01-19T05:01:22.941Z,6.60
2018-01-19T05:03:50.486Z,8.87
2018-01-19T05:06:18.065Z,7.23
2018-01-19T05:08:45.612Z,6.37
2018-01-19T05:11:13.179Z,7.77
2018-01-19T05:13:40.739Z,8.17
2018-01-19T05:16:08.304Z,7.90
2018-01-19T05:18:35.857Z,7.93
2018-01-19T05:21:03.424Z,8.90
2018-01-19T05:23:30.995Z,7.37
2018-01-19T05:25:58.589Z,8.60
2018-01-19T05:28:26.141Z,7.60
2018-01-19T05:30:54.479Z,7.87
2018-01-19T05:33:22.025Z,7.90
2018-01-19T05:35:49.589Z,8.60
2018-01-19T05:38:17.135Z,8.47
2018-01-19T05:40:44.680Z,6.40
2018-01-19T05:43:12.235Z,7.60
2018-01-19T05:45:40.538Z,7.97
2018-01-19T05:48:08.869Z,7.80
2018-01-19T05:50:36.409Z,7.13
2018-01-19T05:53:04.744Z,7.70
2018-01-19T05:55:32.288Z,6.93
2018-01-19T05:58:00.657Z,7.40
2018-01-19T06:00:28.199Z,8.77
2018-01-19T06:02:55.773Z,8.20
2018-01-19T06:05:23.332Z,8.90
2018-01-19T06:07:50.977Z,8.30
2018-01-19T06:10:18.514Z,8.83
2018-01-19T06:12:46.072Z,8.83
2018-01-19T06:15:13.704Z,9.60
2018-01-19T06:17:41.277Z,10.17
2018-01-19T06:20:09.590Z,9.53
2018-01-19T06:22:37.918Z,9.80
2018-01-19T06:25:05.460Z,9.40
2018-01-19T06:27:33.808Z,10.87
2018-01-19T06:30:01.382Z,9.90
2018-01-19T06:32:28.942Z,10.70
2018-01-19T06:34:57.268Z,10.93
2018-01-19T06:37:24.809Z,9.90
2018-01-19T06:39:53.144Z,10.00
2018-01-19T06:42:20.690Z,10.90
2018-01-19T06:44:48.250Z,9.73
2018-01-19T06:47:15.796Z,10.60
2018-01-19T06:49:43.368Z,11.60
2018-01-19T06:52:10.937Z,11.93
2018-01-19T06:54:38.500Z,12.20
2018-01-19T06:57:06.049Z,12.00
2018-01-19T06:59:33.620Z,11.90
2018-01-19T07:02:01.186Z,12.27
2018-01-19T07:04:28.759Z,12.10
2018-01-19T07:06:57.076Z,13.27
2018-01-19T07:09:24.625Z,12.63
2018-01-19T07:11:52.196Z,14.03
2018-01-19T07:14:19.753Z,13.60
2018-01-19T07:16:47.320Z,14.27
2018-01-19T07:19:14.865Z,13.60
2018-01-19T07:21:42.432Z,14.70
2018-01-19T07:24:09.981Z,14.13
2018-01-19T07:26:37.549Z,13.17
2018-01-19T07:29:05.092Z,13.33
2018-01-19T07:31:32.652Z,14.50
2018-01-19T07:34:00.201Z,14.07
2018-01-19T07:36:27.766Z,15.90
2018-01-19T07:38:56.097Z,12.70
2018-01-19T07:41:23.659Z,13.27
2018-01-19T07:43:51.972Z,12.30
2018-01-19T07:46:19.540Z,12.43
2018-01-19T07:48:47.861Z,14.10
2018-01-19T07:51:15.424Z,14.30
2018-01-19T07:53:43.737Z,11.90
2018-01-19T07:56:12.064Z,12.60
2018-01-19T07:58:39.626Z,11.50
2018-01-19T08:01:07.178Z,12.83
2018-01-19T08:03:34.751Z,13.43
2018-01-19T08:06:02.300Z,12.70
2018-01-19T08:08:29.868Z,11.90
2018-01-19T08:10:57.452Z,12.73
2018-01-19T08:13:25.032Z,14.37
2018-01-19T08:15:52.577Z,11.93
2018-01-19T08:18:20.142Z,11.00
2018-01-19T08:20:47.693Z,10.40
2018-01-19T08:23:15.259Z,13.23
2018-01-19T08:25:43.574Z,11.27
2018-01-19T08:28:11.144Z,10.70
2018-01-19T08:30:39.452Z,10.00
2018-01-19T08:33:07.781Z,11.60
2018-01-19T08:35:35.320Z,9.77
2018-01-19T08:38:02.894Z,9.57
2018-01-19T08:40:30.452Z,9.70
2018-01-19T08:42:58.025Z,11.00
2018-01-19T08:45:25.595Z,10.10
2018-01-19T08:47:53.150Z,10.93
2018-01-19T08:50:21.488Z,10.17
2018-01-19T08:52:49.037Z,9.77
2018-01-19T08:55:17.360Z,8.27
2018-01-19T08:57:44.897Z,8.40
2018-01-19T09:00:12.456Z,9.20
2018-01-19T09:02:40.006Z,9.00
2018-01-19T09:05:07.564Z,9.17
2018-01-19T09:07:35.868Z,8.83
2018-01-19T09:10:04.197Z,9.67
2018-01-19T09:12:31.752Z,9.67
2018-01-19T09:15:00.082Z,8.83
2018-01-19T09:17:27.624Z,9.20
2018-01-19T09:19:55.165Z,9.00
2018-01-19T09:22:22.724Z,8.00
2018-01-19T09:24:50.273Z,8.13
2018-01-19T09:27:17.836Z,8.07
2018-01-19T09:29:45.383Z,8.50
2018-01-19T09:32:12.953Z,7.40
2018-01-19T09:34:40.500Z,8.80
2018-01-19T09:37:08.072Z,7.97
2018-01-19T09:39:35.609Z,7.57
2018-01-19T09:42:03.936Z,9.33
2018-01-19T09:44:31.505Z,7.60
2018-01-19T09:46:59.078Z,8.90
2018-01-19T09:49:26.629Z,8.37
2018-01-19T09:51:54.190Z,7.73
2018-01-19T09:54:21.734Z,9.90
2018-01-19T09:56:49.283Z,9.50
2018-01-19T09:59:16.825Z,8.73
2018-01-19T10:01:44.385Z,8.67
2018-01-19T10:04:12.693Z,8.70
2018-01-19T10:06:41.019Z,6.97
2018-01-19T10:09:08.560Z,9.00
2018-01-19T10:11:36.111Z,9.10
2018-01-19T10:14:03.668Z,8.20
2018-01-19T10:16:31.250Z,8.87
2018-01-19T10:18:58.824Z,8.90
2018-01-19T10:21:26.393Z,9.00
2018-01-19T10:23:54.716Z,8.70
2018-01-19T10:26:22.252Z,8.40
2018-01-19T10:28:49.811Z,9.00
2018-01-19T10:31:17.352Z,8.57
2018-01-19T10:33:44.917Z,8.33
2018-01-19T10:36:12.456Z,8.97
2018-01-19T10:38:40.016Z,8.27
2018-01-19T10:41:07.556Z,9.33
2018-01-19T10:43:35.121Z,8.17
2018-01-19T10:46:02.660Z,7.03
2018-01-19T10:48:30.220Z,7.10
2018-01-19T10:50:58.537Z,9.10
2018-01-19T10:53:26.864Z,9.70
2018-01-19T10:55:54.406Z,8.00
2018-01-19T10:58:22.724Z,8.60
2018-01-19T11:00:51.072Z,8.30
2018-01-19T11:03:18.588Z,7.90
2018-01-19T11:05:46.152Z,9.17
2018-01-19T11:08:13.702Z,8.60
2018-01-19T11:10:41.270Z,8.97
2018-01-19T11:13:08.816Z,9.33
2018-01-19T11:15:36.377Z,8.57
2018-01-19T11:18:03.921Z,7.97
2018-01-19T11:20:31.491Z,8.87
2018-01-19T11:22:59.800Z,9.00
2018-01-19T11:25:27.361Z,10.20
2018-01-19T11:27:54.896Z,8.90
2018-01-19T11:30:22.459Z,7.90
2018-01-19T11:32:50.004Z,8.33
2018-01-19T11:35:17.569Z,8.10
2018-01-19T11:37:45.121Z,8.40
2018-01-19T11:40:12.687Z,8.10
2018-01-19T11:42:40.232Z,8.83
2018-01-19T11:45:07.797Z,8.70
2018-01-19T11:47:35.334Z,9.60
2018-01-19T11:50:03.657Z,9.10
2018-01-19T11:52:31.212Z,8.33
2018-01-19T11:54:59.549Z,7.93
2018-01-19T11:57:27.136Z,8.50
2018-01-19T11:59:54.679Z,9.13
2018-01-19T12:02:23.009Z,7.50
2018-01-19T12:04:50.548Z,8.23
2018-01-19T12:07:18.117Z,7.00
2018-01-19T12:09:45.656Z,9.50
2018-01-19T12:12:13.220Z,8.20
2018-01-19T12:14:41.536Z,9.87
2018-01-19T12:17:09.096Z,6.63
2018-01-19T12:19:36.646Z,7.77
2018-01-19T12:22:04.209Z,8.00
2018-01-19T12:24:31.762Z,7.33
2018-01-19T12:27:00.097Z,8.33
2018-01-19T12:29:27.636Z,7.40
2018-01-19T12:31:55.963Z,8.50
2018-01-19T12:34:23.507Z,7.00
2018-01-19T12:36:51.073Z,7.80
2018-01-19T12:39:18.624Z,7.60
2018-01-19T12:41:46.998Z,7.77
2018-01-19T12:44:15.305Z,6.50
2018-01-19T12:46:43.632Z,7.33
2018-01-19T12:49:11.177Z,7.73
2018-01-19T12:51:38.745Z,6.27
2018-01-19T12:54:06.288Z,7.30
2018-01-19T12:56:33.864Z,7.40
2018-01-19T12:59:01.426Z,7.63
2018-01-19T13:01:29.742Z,9.03
2018-01-19T13:03:57.305Z,7.53
2018-01-19T13:06:25.614Z,7.50
2018-01-19T13:08:53.945Z,7.23
2018-01-19T13:11:21.480Z,8.40
2018-01-19T13:13:49.036Z,7.97
2018-01-19T13:16:16.591Z,8.20
2018-01-19T13:18:44.156Z,7.90
2018-01-19T13:21:11.701Z,7.50
2018-01-19T13:23:39.256Z,8.07
2018-01-19T13:26:06.812Z,9.00
2018-01-19T13:28:34.372Z,8.10
2018-01-19T13:31:01.912Z,8.60
2018-01-19T13:33:29.474Z,8.53
2018-01-19T13:35:57.019Z,8.93
2018-01-19T13:38:25.336Z,9.00
2018-01-19T13:40:53.661Z,8.67
2018-01-19T13:43:21.204Z,8.50
2018-01-19T13:45:48.770Z,9.13
2018-01-19T13:48:17.132Z,7.37
2018-01-19T13:50:44.700Z,8.40
2018-01-19T13:53:12.251Z,7.90
2018-01-19T13:55:39.816Z,8.60
2018-01-19T13:58:07.354Z,8.43
2018-01-19T14:00:34.912Z,9.30
2018-01-19T14:03:02.449Z,9.57
2018-01-19T14:05:30.012Z,8.00
2018-01-19T14:07:57.583Z,7.83
2018-01-19T14:10:25.904Z,8.07
2018-01-19T14:12:53.445Z,7.90
2018-01-19T14:15:20.989Z,8.37
2018-01-19T14:17:48.551Z,8.40
2018-01-19T14:20:16.099Z,8.63
2018-01-19T14:22:43.661Z,7.93
2018-01-19T14:25:11.197Z,8.13
2018-01-19T14:27:38.763Z,8.53
2018-01-19T14:30:07.088Z,7.73
2018-01-19T14:32:34.649Z,7.70
2018-01-19T14:35:02.956Z,7.93
2018-01-19T14:37:31.276Z,9.07
2018-01-19T14:39:58.814Z,9.53
2018-01-19T14:42:26.369Z,8.17
2018-01-19T14:44:53.914Z,9.90
2018-01-19T14:47:22.245Z,9.67
2018-01-19T14:49:49.794Z,10.40
2018-01-19T14:52:18.109Z,11.70
2018-01-19T14:54:45.676Z,11.17
2018-01-19T14:57:13.986Z,10.30
2018-01-19T14:59:42.325Z,10.10
2018-01-19T15:02:10.644Z,9.47
2018-01-19T15:04:38.205Z,9.80
2018-01-19T15:07:05.752Z,10.50
2018-01-19T15:09:34.072Z,9.10
2018-01-19T15:12:01.614Z,9.93
2018-01-19T15:14:29.167Z,10.10
2018-01-19T15:16:56.711Z,9.70
2018-01-19T15:19:25.037Z,9.53
2018-01-19T15:21:52.580Z,8.90
2018-01-19T15:24:20.154Z,8.57
2018-01-19T15:26:47.712Z,9.00
2018-01-19T15:29:15.274Z,10.93
2018-01-19T15:31:42.821Z,10.63
2018-01-19T15:34:11.153Z,12.60
2018-01-19T15:36:38.775Z,8.60
2018-01-19T15:39:06.320Z,10.27
2018-01-19T15:41:33.898Z,10.73
2018-01-19T15:44:01.442Z,10.27
2018-01-19T15:46:29.006Z,10.30
2018-01-19T15:48:56.563Z,9.83
2018-01-19T15:51:24.129Z,8.73
2018-01-19T15:53:51.689Z,6.60
2018-01-19T15:56:19.257Z,5.23
2018-01-19T15:58:46.800Z,3.50
2018-01-19T16:01:14.364Z,3.00
2018-01-19T16:03:42.669Z,3.50
2018-01-19T16:06:10.222Z,2.67
2018-01-19T16:08:37.761Z,4.43
2018-01-19T16:11:05.320Z,3.67
2018-01-19T16:13:32.872Z,3.53
2018-01-19T16:16:00.410Z,2.70
2018-01-19T16:18:28.130Z,2.33
2018-01-19T16:20:55.671Z,2.70
2018-01-19T16:23:23.225Z,2.43
2018-01-19T16:25:51.541Z,2.87
2018-01-19T16:28:19.096Z,2.37
2018-01-19T16:30:46.641Z,2.00
2018-01-19T16:33:14.192Z,3.10
2018-01-19T16:35:42.497Z,3.90
2018-01-19T16:38:10.056Z,3.90
2018-01-19T16:40:37.610Z,3.90
2018-01-19T16:43:05.172Z,2.73
2018-01-19T16:45:32.748Z,2.37
2018-01-19T16:48:00.304Z,2.63
2018-01-19T16:50:28.620Z,2.50
2018-01-19T16:52:56.188Z,1.93
2018-01-19T16:55:24.496Z,2.37
2018-01-19T16:57:52.862Z,2.10
2018-01-19T17:00:20.397Z,2.60
2018-01-19T17:02:47.982Z,3.03
2018-01-19T17:05:15.518Z,2.53
2018-01-19T17:07:43.070Z,2.40
2018-01-19T17:10:10.640Z,2.60
2018-01-19T17:12:38.184Z,2.50
2018-01-19T17:15:05.739Z,2.30
2018-01-19T17:17:33.280Z,2.20
2018-01-19T17:20:00.841Z,2.00
2018-01-19T17:22:29.149Z,2.80
2018-01-19T17:24:57.483Z,2.33
2018-01-19T17:27:25.020Z,3.17
2018-01-19T17:29:53.357Z,6.90
2018-01-19T17:32:20.901Z,7.23
2018-01-19T17:34:48.457Z,4.40
2018-01-19T17:37:15.998Z,3.30
2018-01-19T17:39:43.551Z,4.17
2018-01-19T17:42:11.863Z,6.93
2018-01-19T17:44:40.184Z,8.43
2018-01-19T17:47:07.749Z,8.10
2018-01-19T17:49:36.084Z,9.40
2018-01-19T17:52:03.645Z,11.67
2018-01-19T17:54:31.973Z,11.03
2018-01-19T17:56:59.529Z,11.43
2018-01-19T17:59:27.872Z,13.43
2018-01-19T18:01:56.185Z,11.87
2018-01-19T18:04:23.744Z,14.40
2018-01-19T18:06:51.300Z,14.73
2018-01-19T18:09:19.607Z,15.43
2018-01-19T18:11:47.169Z,18.10
2018-01-19T18:14:14.715Z,16.57
2018-01-19T18:16:42.284Z,18.00
2018-01-19T18:19:09.833Z,16.93
2018-01-19T18:21:38.171Z,17.30
2018-01-19T18:24:05.729Z,19.57
2018-01-19T18:26:34.065Z,18.37
2018-01-19T18:29:04.738Z,17.10
2018-01-19T18:31:35.068Z,18.60
2018-01-19T18:34:02.869Z,19.10
2018-01-19T18:36:30.443Z,19.10
2018-01-19T18:38:58.037Z,18.07
2018-01-19T18:41:25.604Z,19.43
2018-01-19T18:43:53.149Z,18.53
2018-01-19T18:46:20.717Z,18.77
2018-01-19T18:48:48.260Z,18.47
2018-01-19T18:51:15.821Z,20.10
2018-01-19T18:53:44.161Z,21.47
2018-01-19T18:56:11.699Z,19.67
2018-01-19T18:58:39.256Z,18.87
2018-01-19T19:01:11.412Z,19.90
2018-01-19T19:03:39.352Z,20.60
2018-01-19T19:06:07.176Z,19.03
2018-01-19T19:08:35.504Z,22.57
2018-01-19T19:11:09.224Z,22.27
2018-01-19T19:13:39.240Z,21.37
2018-01-19T19:16:07.544Z,22.80
2018-01-19T19:18:35.872Z,20.33
2018-01-19T19:21:03.424Z,23.20
2018-01-19T19:23:31.014Z,23.33
2018-01-19T19:26:00.148Z,26.20
2018-01-19T19:28:28.128Z,25.40
2018-01-19T19:30:56.451Z,24.87
2018-01-19T19:33:29.831Z,24.03
2018-01-19T19:35:59.407Z,26.60
2018-01-19T19:38:32.613Z,23.63
2018-01-19T19:41:00.345Z,25.03
2018-01-19T19:43:30.030Z,24.50
2018-01-19T19:46:01.236Z,23.77
2018-01-19T19:48:30.998Z,24.60
2018-01-19T19:50:59.785Z,23.43
2018-01-19T19:53:30.038Z,22.27
2018-01-19T19:56:00.939Z,26.20
2018-01-19T19:58:33.189Z,25.00
2018-01-19T20:01:07.293Z,26.07
2018-01-19T20:03:40.963Z,25.17
2018-01-19T20:06:09.807Z,26.33
2018-01-19T20:08:43.797Z,24.50
2018-01-19T20:11:17.910Z,25.73
2018-01-19T20:13:50.117Z,24.30
2018-01-19T20:16:21.880Z,26.90
2018-01-19T20:18:52.941Z,26.13
2018-01-19T20:21:21.108Z,26.80
2018-01-19T20:23:54.489Z,25.70
2018-01-19T20:26:22.600Z,28.33
2018-01-19T20:28:50.317Z,29.00
2018-01-19T20:31:18.156Z,27.60
2018-01-19T20:33:46.563Z,28.27
2018-01-19T20:36:14.306Z,28.07
2018-01-19T20:38:42.000Z,26.17
2018-01-19T20:41:10.620Z,27.00
2018-01-19T20:43:38.395Z,25.77
2018-01-19T20:46:06.892Z,25.50
2018-01-19T20:48:34.677Z,27.70
2018-01-19T20:51:02.426Z,28.00
2018-01-19T20:53:30.209Z,27.30
2018-01-19T20:55:57.998Z,27.23
2018-01-19T20:58:25.639Z,27.53
2018-01-19T21:00:53.272Z,28.60
2018-01-19T21:03:20.844Z,27.97
2018-01-19T21:05:49.151Z,29.17
2018-01-19T21:08:18.603Z,26.30
2018-01-19T21:10:46.153Z,26.77
2018-01-19T21:13:13.786Z,28.40
2018-01-19T21:15:41.346Z,27.33
2018-01-19T21:18:08.916Z,26.83
2018-01-19T21:20:37.239Z,30.17
2018-01-19T21:23:04.796Z,25.70
2018-01-19T21:25:32.352Z,25.77
2018-01-19T21:27:59.938Z,26.20
2018-01-19T21:30:27.481Z,27.57
2018-01-19T21:32:55.040Z,29.13
2018-01-19T21:35:23.373Z,26.40
2018-01-19T21:37:50.990Z,26.40
2018-01-19T21:40:18.551Z,28.17
2018-01-19T21:42:46.093Z,26.77
2018-01-19T21:45:14.428Z,26.33
2018-01-19T21:47:42.009Z,27.30
2018-01-19T21:50:09.702Z,28.67
2018-01-19T21:52:37.267Z,25.87
2018-01-19T21:55:05.596Z,26.97
2018-01-19T21:57:33.144Z,28.73
2018-01-19T22:00:01.478Z,28.50
2018-01-19T22:02:29.033Z,28.50
2018-01-19T22:04:56.607Z,30.20
2018-01-19T22:07:24.923Z,28.57
2018-01-19T22:09:52.491Z,29.87
2018-01-19T22:12:20.812Z,29.90
2018-01-19T22:14:48.383Z,28.20
2018-01-19T22:17:16.694Z,27.70
2018-01-19T22:19:45.021Z,28.20
2018-01-19T22:22:12.561Z,26.17
2018-01-19T22:24:40.100Z,29.93
2018-01-19T22:27:07.674Z,27.57
2018-01-19T22:29:35.217Z,26.80
2018-01-19T22:32:03.565Z,27.10
2018-01-19T22:34:31.112Z,26.70
2018-01-19T22:36:58.709Z,29.83
2018-01-19T22:39:26.256Z,27.70
2018-01-19T22:41:53.817Z,28.73
2018-01-19T22:44:21.381Z,26.00
2018-01-19T22:46:48.944Z,26.90
2018-01-19T22:49:16.487Z,25.60
2018-01-19T22:51:44.099Z,25.07
2018-01-19T22:54:11.619Z,26.07
2018-01-19T22:56:39.180Z,25.10
2018-01-19T22:59:06.737Z,26.00
2018-01-19T23:01:35.084Z,24.30
2018-01-19T23:04:02.692Z,24.73
2018-01-19T23:06:30.252Z,24.10
2018-01-19T23:08:57.813Z,27.20
2018-01-19T23:11:25.361Z,25.33
2018-01-19T23:13:52.920Z,24.90
2018-01-19T23:16:20.468Z,24.90
2018-01-19T23:18:48.028Z,25.30
2018-01-19T23:21:16.345Z,25.23
2018-01-19T23:23:44.669Z,24.90
2018-01-19T23:26:12.213Z,24.67
2018-01-19T23:28:39.782Z,24.00
2018-01-19T23:31:07.337Z,25.00
2018-01-19T23:33:34.904Z,24.67
2018-01-19T23:36:02.446Z,24.87
2018-01-19T23:38:30.046Z,23.87
2018-01-19T23:40:58.411Z,24.37
2018-01-19T23:43:25.956Z,24.80
2018-01-19T23:45:53.508Z,24.83
2018-01-19T23:48:21.844Z,25.77
2018-01-19T23:50:49.405Z,23.50
2018-01-19T23:53:17.763Z,21.67
2018-01-19T23:55:45.320Z,23.13
2018-01-19T23:58:12.881Z,26.70
